createdAt,value
2019-01-31T00:00:05.428Z,22.1
2019-01-31T00:02:05.221Z,22.1
2019-01-31T00:04:04.906Z,22.1
2019-01-31T00:06:07.252Z,22.1
2019-01-31T00:08:04.954Z,22.1
2019-01-31T00:10:07.682Z,22.1
2019-01-31T00:12:05.378Z,22.1
2019-01-31T00:14:04.798Z,22.1
2019-01-31T00:16:05.542Z,22.1
2019-01-31T00:18:05.521Z,22.1
2019-01-31T00:20:05.170Z,22.1
2019-01-31T00:22:04.917Z,22.1
2019-01-31T00:24:05.558Z,22.1
2019-01-31T00:26:05.220Z,22
2019-01-31T00:28:04.957Z,22.1
2019-01-31T00:30:04.639Z,22.1
2019-01-31T00:32:05.314Z,22
2019-01-31T00:34:04.976Z,22
2019-01-31T00:36:04.664Z,22.1
2019-01-31T00:38:10.535Z,22
2019-01-31T00:40:04.767Z,22
2019-01-31T00:42:05.275Z,22
2019-01-31T00:44:04.960Z,22.1
2019-01-31T00:46:05.197Z,22
2019-01-31T00:48:05.081Z,22.1
2019-01-31T00:50:05.304Z,22
2019-01-31T00:52:05.587Z,22
2019-01-31T00:54:05.355Z,22
2019-01-31T00:56:05.092Z,22
2019-01-31T00:58:04.831Z,22
2019-01-31T01:00:05.559Z,22
2019-01-31T01:02:07.923Z,22
2019-01-31T01:04:05.608Z,22
2019-01-31T01:06:05.367Z,22
2019-01-31T01:08:05.666Z,22
2019-01-31T01:10:04.861Z,22
2019-01-31T01:12:05.526Z,22
2019-01-31T01:14:05.423Z,22
2019-01-31T01:16:05.123Z,22
2019-01-31T01:18:05.002Z,22
2019-01-31T01:20:04.717Z,22
2019-01-31T01:22:05.405Z,22
2019-01-31T01:24:12.759Z,22
2019-01-31T01:26:13.114Z,22
2019-01-31T01:28:04.807Z,22
2019-01-31T01:30:05.527Z,22
2019-01-31T01:32:05.196Z,22
2019-01-31T01:34:07.600Z,22
2019-01-31T01:36:04.887Z,22
2019-01-31T01:38:05.536Z,22
2019-01-31T01:40:05.234Z,22
2019-01-31T01:42:13.034Z,22
2019-01-31T01:44:04.667Z,22
2019-01-31T01:46:05.305Z,22
2019-01-31T01:48:04.971Z,22
2019-01-31T01:50:04.686Z,22
2019-01-31T01:52:10.004Z,22
2019-01-31T01:54:04.699Z,22
2019-01-31T01:56:05.721Z,22
2019-01-31T01:58:12.991Z,22
2019-01-31T02:00:09.820Z,22
2019-01-31T02:02:05.533Z,22
2019-01-31T02:04:07.696Z,22
2019-01-31T02:06:05.410Z,22
2019-01-31T02:08:05.728Z,22
2019-01-31T02:10:04.806Z,22
2019-01-31T02:12:05.156Z,22
2019-01-31T02:14:04.873Z,22
2019-01-31T02:16:05.678Z,22
2019-01-31T02:18:05.167Z,22
2019-01-31T02:20:04.918Z,22
2019-01-31T02:22:05.718Z,21.9
2019-01-31T02:24:05.016Z,22
2019-01-31T02:26:07.251Z,22
2019-01-31T02:28:04.970Z,22
2019-01-31T02:30:04.916Z,22
2019-01-31T02:32:05.164Z,22
2019-01-31T02:34:04.891Z,22
2019-01-31T02:36:07.178Z,22
2019-01-31T02:38:04.907Z,21.9
2019-01-31T02:40:05.147Z,21.9
2019-01-31T02:42:04.869Z,21.9
2019-01-31T02:44:04.628Z,21.9
2019-01-31T02:46:10.359Z,21.9
2019-01-31T02:48:05.047Z,21.9
2019-01-31T02:50:04.699Z,21.9
2019-01-31T02:52:05.427Z,21.9
2019-01-31T02:54:15.227Z,21.9
2019-01-31T02:56:04.976Z,21.9
2019-01-31T02:58:05.192Z,21.9
2019-01-31T03:00:04.644Z,21.9
2019-01-31T03:02:07.888Z,22
2019-01-31T03:04:07.168Z,21.9
2019-01-31T03:06:04.874Z,21.9
2019-01-31T03:08:10.144Z,21.9
2019-01-31T03:10:04.899Z,21.9
2019-01-31T03:12:08.126Z,21.9
2019-01-31T03:14:10.102Z,21.9
2019-01-31T03:16:05.202Z,21.9
2019-01-31T03:18:04.709Z,21.9
2019-01-31T03:20:05.568Z,21.9
2019-01-31T03:22:04.866Z,21.9
2019-01-31T03:24:07.252Z,21.9
2019-01-31T03:26:05.462Z,21.9
2019-01-31T03:28:05.109Z,21.9
2019-01-31T03:30:04.852Z,21.9
2019-01-31T03:32:05.629Z,21.9
2019-01-31T03:34:05.308Z,21.9
2019-01-31T03:36:04.980Z,21.9
2019-01-31T03:38:04.662Z,21.9
2019-01-31T03:40:07.863Z,21.9
2019-01-31T03:42:07.642Z,21.9
2019-01-31T03:44:12.903Z,21.9
2019-01-31T03:46:05.163Z,21.9
2019-01-31T03:48:04.868Z,21.9
2019-01-31T03:50:06.845Z,21.9
2019-01-31T03:52:04.781Z,21.9
2019-01-31T03:54:05.578Z,21.9
2019-01-31T03:56:05.307Z,21.8
2019-01-31T03:58:05.015Z,21.9
2019-01-31T04:00:07.493Z,21.8
2019-01-31T04:02:05.149Z,21.9
2019-01-31T04:04:05.358Z,21.9
2019-01-31T04:06:07.623Z,21.9
2019-01-31T04:08:07.467Z,21.9
2019-01-31T04:10:04.695Z,21.8
2019-01-31T04:12:05.386Z,21.8
2019-01-31T04:14:07.667Z,21.8
2019-01-31T04:16:05.376Z,21.8
2019-01-31T04:18:07.359Z,21.9
2019-01-31T04:20:04.984Z,21.8
2019-01-31T04:22:04.719Z,21.8
2019-01-31T04:24:08.008Z,21.9
2019-01-31T04:26:05.248Z,21.8
2019-01-31T04:28:04.970Z,21.9
2019-01-31T04:30:04.855Z,21.9
2019-01-31T04:32:05.177Z,21.8
2019-01-31T04:34:04.818Z,21.9
2019-01-31T04:36:05.510Z,21.9
2019-01-31T04:38:10.369Z,21.8
2019-01-31T04:40:05.133Z,21.8
2019-01-31T04:42:07.915Z,21.8
2019-01-31T04:44:05.567Z,21.8
2019-01-31T04:46:10.377Z,21.8
2019-01-31T04:48:05.141Z,21.8
2019-01-31T04:50:04.915Z,21.9
2019-01-31T04:52:05.129Z,21.9
2019-01-31T04:54:07.401Z,21.9
2019-01-31T04:56:07.655Z,22
2019-01-31T04:58:05.497Z,21.9
2019-01-31T05:00:07.801Z,22
2019-01-31T05:02:05.555Z,22
2019-01-31T05:04:05.545Z,22
2019-01-31T05:06:07.834Z,22.1
2019-01-31T05:08:05.555Z,22.1
2019-01-31T05:10:08.026Z,22.1
2019-01-31T05:12:05.309Z,22.1
2019-01-31T05:14:07.501Z,22.1
2019-01-31T05:16:05.248Z,22.2
2019-01-31T05:18:07.693Z,22.2
2019-01-31T05:20:05.174Z,22.2
2019-01-31T05:22:12.424Z,22.2
2019-01-31T05:24:12.818Z,22.2
2019-01-31T05:26:04.798Z,22.2
2019-01-31T05:28:05.591Z,22.2
2019-01-31T05:30:07.838Z,22.2
2019-01-31T05:32:04.640Z,22.2
2019-01-31T05:34:05.333Z,22.2
2019-01-31T05:36:05.029Z,22.2
2019-01-31T05:38:04.688Z,22.2
2019-01-31T05:40:05.395Z,22.1
2019-01-31T05:42:05.072Z,22.1
2019-01-31T05:44:05.281Z,22.2
2019-01-31T05:46:05.204Z,22.1
2019-01-31T05:48:04.997Z,22.2
2019-01-31T05:50:10.688Z,22.1
2019-01-31T05:52:05.396Z,22.1
2019-01-31T05:54:12.696Z,22.1
2019-01-31T05:56:05.607Z,22.1
2019-01-31T05:58:05.322Z,22.1
2019-01-31T06:00:05.099Z,22.1
2019-01-31T06:02:04.829Z,22.1
2019-01-31T06:04:05.519Z,22.1
2019-01-31T06:06:07.789Z,22
2019-01-31T06:08:22.775Z,22
2019-01-31T06:10:05.117Z,22
2019-01-31T06:12:04.816Z,22
2019-01-31T06:14:05.595Z,22
2019-01-31T06:16:07.822Z,22
2019-01-31T06:18:04.680Z,22
2019-01-31T06:20:12.921Z,22
2019-01-31T06:22:08.161Z,22
2019-01-31T06:24:05.319Z,22
2019-01-31T06:26:05.023Z,22
2019-01-31T06:28:04.936Z,22
2019-01-31T06:30:07.253Z,22
2019-01-31T06:32:04.727Z,22
2019-01-31T06:34:05.509Z,22
2019-01-31T06:36:05.272Z,22
2019-01-31T06:38:04.938Z,22
2019-01-31T06:40:04.612Z,21.9
2019-01-31T06:42:05.361Z,21.9
2019-01-31T06:44:10.398Z,21.9
2019-01-31T06:46:05.168Z,21.9
2019-01-31T06:48:05.290Z,21.9
2019-01-31T06:50:05.500Z,21.9
2019-01-31T06:52:05.232Z,21.9
2019-01-31T06:54:07.418Z,21.9
2019-01-31T06:56:05.516Z,21.9
2019-01-31T06:58:05.214Z,21.9
2019-01-31T07:00:07.447Z,21.9
2019-01-31T07:02:05.146Z,21.9
2019-01-31T07:04:04.905Z,21.9
2019-01-31T07:06:05.637Z,21.9
2019-01-31T07:08:05.404Z,21.9
2019-01-31T07:10:07.675Z,22
2019-01-31T07:12:05.057Z,22
2019-01-31T07:14:04.925Z,22
2019-01-31T07:16:08.149Z,22.1
2019-01-31T07:18:05.622Z,22
2019-01-31T07:20:05.366Z,22.1
2019-01-31T07:22:05.026Z,22.1
2019-01-31T07:24:04.862Z,22.1
2019-01-31T07:26:05.533Z,22.1
2019-01-31T07:28:05.284Z,22.1
2019-01-31T07:30:08.081Z,22.2
2019-01-31T07:32:04.777Z,22.2
2019-01-31T07:34:05.478Z,22.2
2019-01-31T07:36:05.260Z,22.2
2019-01-31T07:38:05.020Z,22.2
2019-01-31T07:40:10.337Z,22.2
2019-01-31T07:42:04.986Z,22.2
2019-01-31T07:44:04.875Z,22.2
2019-01-31T07:46:08.067Z,22.2
2019-01-31T07:48:09.800Z,22.2
2019-01-31T07:50:05.507Z,22.2
2019-01-31T07:52:05.209Z,22.2
2019-01-31T07:54:05.028Z,22.2
2019-01-31T07:56:07.414Z,22.2
2019-01-31T07:58:05.166Z,22.2
2019-01-31T08:00:09.983Z,22.2
2019-01-31T08:02:04.695Z,22.1
2019-01-31T08:04:05.457Z,22.1
2019-01-31T08:06:14.799Z,22.1
2019-01-31T08:08:05.492Z,22.1
2019-01-31T08:10:05.124Z,22.1
2019-01-31T08:12:04.825Z,22.1
2019-01-31T08:14:05.516Z,22.1
2019-01-31T08:16:05.238Z,22.1
2019-01-31T08:18:05.129Z,22.1
2019-01-31T08:20:07.934Z,22.1
2019-01-31T08:22:05.612Z,22.1
2019-01-31T08:24:09.492Z,22.1
2019-01-31T08:26:12.530Z,22.1
2019-01-31T08:28:05.176Z,22
2019-01-31T08:30:04.907Z,22.1
2019-01-31T08:32:05.593Z,22.1
2019-01-31T08:34:05.249Z,22.1
2019-01-31T08:36:04.988Z,22.1
2019-01-31T08:38:04.685Z,22.1
2019-01-31T08:40:08.045Z,22.1
2019-01-31T08:42:04.808Z,22.1
2019-01-31T08:44:05.467Z,22.1
2019-01-31T08:46:05.271Z,22.1
2019-01-31T08:48:04.985Z,22.1
2019-01-31T08:50:04.664Z,22.2
2019-01-31T08:52:09.920Z,22.2
2019-01-31T08:54:18.224Z,22.2
2019-01-31T08:56:05.006Z,22.2
2019-01-31T08:58:05.184Z,22.3
2019-01-31T09:00:05.368Z,22.2
2019-01-31T09:02:05.608Z,22.2
2019-01-31T09:04:05.311Z,22.2
2019-01-31T09:06:07.589Z,22.3
2019-01-31T09:08:05.373Z,22.3
2019-01-31T09:10:07.571Z,22.4
2019-01-31T09:12:14.910Z,22.4
2019-01-31T09:14:07.616Z,22.4
2019-01-31T09:16:05.300Z,22.4
2019-01-31T09:18:07.877Z,22.5
2019-01-31T09:20:04.629Z,22.5
2019-01-31T09:22:05.309Z,22.5
2019-01-31T09:24:04.964Z,22.6
2019-01-31T09:26:04.656Z,22.6
2019-01-31T09:28:04.871Z,22.6
2019-01-31T09:30:05.512Z,22.6
2019-01-31T09:32:05.217Z,22.6
2019-01-31T09:34:04.868Z,22.6
2019-01-31T09:36:05.566Z,22.6
2019-01-31T09:38:05.319Z,22.6
2019-01-31T09:40:10.135Z,22.6
2019-01-31T09:42:08.160Z,22.6
2019-01-31T09:44:15.101Z,22.6
2019-01-31T09:46:04.879Z,22.6
2019-01-31T09:48:08.100Z,22.6
2019-01-31T09:50:04.763Z,22.6
2019-01-31T09:52:05.435Z,22.6
2019-01-31T09:54:05.215Z,22.6
2019-01-31T09:56:04.891Z,22.6
2019-01-31T09:58:05.598Z,22.6
2019-01-31T10:00:07.832Z,22.5
2019-01-31T10:02:05.532Z,22.5
2019-01-31T10:04:07.259Z,22.5
2019-01-31T10:06:09.948Z,22.5
2019-01-31T10:08:04.929Z,22.5
2019-01-31T10:10:04.827Z,22.4
2019-01-31T10:12:05.685Z,22.4
2019-01-31T10:14:05.556Z,22.4
2019-01-31T10:16:04.866Z,22.4
2019-01-31T10:18:05.034Z,22.4
2019-01-31T10:20:05.079Z,22.3
2019-01-31T10:22:04.920Z,22.3
2019-01-31T10:24:05.126Z,22.4
2019-01-31T10:26:05.559Z,22.3
2019-01-31T10:28:07.693Z,22.3
2019-01-31T10:30:04.913Z,22.3
2019-01-31T10:32:04.603Z,22.2
2019-01-31T10:34:04.800Z,22.2
2019-01-31T10:36:05.865Z,22.2
2019-01-31T10:38:07.252Z,22.3
2019-01-31T10:40:07.471Z,22.2
2019-01-31T10:42:05.372Z,22.3
2019-01-31T10:44:05.548Z,22.3
2019-01-31T10:46:05.439Z,22.2
2019-01-31T10:48:05.321Z,22.3
2019-01-31T10:50:05.009Z,22.2
2019-01-31T10:52:04.779Z,22.2
2019-01-31T10:54:05.434Z,22.2
2019-01-31T10:56:05.122Z,22.2
2019-01-31T10:58:05.022Z,22.2
2019-01-31T11:00:08.018Z,22.2
2019-01-31T11:02:07.789Z,22.2
2019-01-31T11:04:05.438Z,22.2
2019-01-31T11:06:07.705Z,22.2
2019-01-31T11:08:07.919Z,22.1
2019-01-31T11:10:04.626Z,22.1
2019-01-31T11:12:05.311Z,22.1
2019-01-31T11:14:05.483Z,22.1
2019-01-31T11:16:04.650Z,22.2
2019-01-31T11:18:04.634Z,22.1
2019-01-31T11:20:07.795Z,22.1
2019-01-31T11:22:17.642Z,22.1
2019-01-31T11:24:05.353Z,22.1
2019-01-31T11:26:15.124Z,22.1
2019-01-31T11:28:04.866Z,22.1
2019-01-31T11:30:08.106Z,22.1
2019-01-31T11:32:05.357Z,22.1
2019-01-31T11:34:05.070Z,22.1
2019-01-31T11:36:05.328Z,22.1
2019-01-31T11:38:05.208Z,22.1
2019-01-31T11:40:04.882Z,22.1
2019-01-31T11:42:13.169Z,22.1
2019-01-31T11:44:04.846Z,22.1
2019-01-31T11:46:08.073Z,22.1
2019-01-31T11:48:07.356Z,22.1
2019-01-31T11:50:05.105Z,22.1
2019-01-31T11:52:04.786Z,22.1
2019-01-31T11:54:07.986Z,22.1
2019-01-31T11:56:04.757Z,22.1
2019-01-31T11:58:04.947Z,22.1
2019-01-31T12:00:04.667Z,22
2019-01-31T12:02:07.424Z,22.1
2019-01-31T12:04:05.058Z,22
2019-01-31T12:06:04.768Z,22
2019-01-31T12:08:05.470Z,22
2019-01-31T12:10:05.131Z,22.1
2019-01-31T12:12:07.992Z,22
2019-01-31T12:14:04.883Z,22
2019-01-31T12:16:05.369Z,22
2019-01-31T12:18:12.891Z,22
2019-01-31T12:20:12.204Z,22
2019-01-31T12:22:04.855Z,22
2019-01-31T12:24:15.781Z,22
2019-01-31T12:26:05.235Z,22
2019-01-31T12:28:08.029Z,22
2019-01-31T12:30:04.790Z,22
2019-01-31T12:32:13.103Z,22
2019-01-31T12:34:05.198Z,22
2019-01-31T12:36:07.463Z,22
2019-01-31T12:38:05.161Z,22
2019-01-31T12:40:04.814Z,22
2019-01-31T12:42:08.268Z,22.1
2019-01-31T12:44:06.335Z,22
2019-01-31T12:46:05.068Z,22
2019-01-31T12:48:07.273Z,22.1
2019-01-31T12:50:04.949Z,22.1
2019-01-31T12:52:04.723Z,22.1
2019-01-31T12:54:05.476Z,22.1
2019-01-31T12:56:09.792Z,22.1
2019-01-31T12:58:04.745Z,22.1
2019-01-31T13:00:04.946Z,22.1
2019-01-31T13:02:07.162Z,22.1
2019-01-31T13:04:04.839Z,22.1
2019-01-31T13:06:15.285Z,22.1
2019-01-31T13:08:04.965Z,22.1
2019-01-31T13:10:05.609Z,22.1
2019-01-31T13:12:05.546Z,22.1
2019-01-31T13:14:07.790Z,22.1
2019-01-31T13:16:04.967Z,22.1
2019-01-31T13:18:10.108Z,22.1
2019-01-31T13:20:04.838Z,22.1
2019-01-31T13:22:05.506Z,22.1
2019-01-31T13:24:12.821Z,22.1
2019-01-31T13:26:05.025Z,22.1
2019-01-31T13:28:04.711Z,22.1
2019-01-31T13:30:04.915Z,22
2019-01-31T13:32:09.689Z,22
2019-01-31T13:34:10.593Z,22
2019-01-31T13:36:07.793Z,22
2019-01-31T13:38:05.430Z,22
2019-01-31T13:40:05.116Z,22
2019-01-31T13:42:04.817Z,22
2019-01-31T13:44:05.498Z,22
2019-01-31T13:46:12.823Z,22
2019-01-31T13:48:10.602Z,22
2019-01-31T13:50:09.969Z,22
2019-01-31T13:52:04.706Z,22
2019-01-31T13:54:04.936Z,22
2019-01-31T13:56:07.437Z,22
2019-01-31T13:58:10.047Z,22
2019-01-31T14:00:05.057Z,22
2019-01-31T14:02:12.651Z,22
2019-01-31T14:04:05.400Z,22
2019-01-31T14:06:07.618Z,22
2019-01-31T14:08:05.245Z,22
2019-01-31T14:10:04.962Z,22
2019-01-31T14:12:04.649Z,22
2019-01-31T14:14:08.878Z,22
2019-01-31T14:16:05.055Z,22.1
2019-01-31T14:18:07.489Z,22
2019-01-31T14:20:07.590Z,22
2019-01-31T14:22:13.149Z,22
2019-01-31T14:24:07.373Z,22
2019-01-31T14:26:05.082Z,22
2019-01-31T14:28:04.797Z,22
2019-01-31T14:30:05.533Z,22
2019-01-31T14:32:05.209Z,22
2019-01-31T14:34:04.902Z,22
2019-01-31T14:36:04.906Z,22
2019-01-31T14:38:09.988Z,22
2019-01-31T14:40:10.663Z,22
2019-01-31T14:42:04.938Z,22
2019-01-31T14:44:04.709Z,21.9
2019-01-31T14:46:05.391Z,22
2019-01-31T14:48:07.222Z,21.9
2019-01-31T14:50:04.933Z,21.9
2019-01-31T14:52:04.654Z,21.9
2019-01-31T14:54:07.903Z,21.9
2019-01-31T14:56:05.595Z,21.9
2019-01-31T14:58:05.295Z,22
2019-01-31T15:00:07.979Z,21.9
2019-01-31T15:02:05.005Z,21.9
2019-01-31T15:04:04.709Z,21.9
2019-01-31T15:06:05.346Z,21.9
2019-01-31T15:08:05.529Z,21.8
2019-01-31T15:10:05.260Z,21.9
2019-01-31T15:12:04.997Z,21.9
2019-01-31T15:14:07.319Z,21.9
2019-01-31T15:16:05.143Z,21.8
2019-01-31T15:18:05.045Z,21.9
2019-01-31T15:20:05.244Z,21.8
2019-01-31T15:22:04.903Z,21.9
2019-01-31T15:24:04.676Z,21.9
2019-01-31T15:26:07.919Z,21.9
2019-01-31T15:28:05.329Z,21.8
2019-01-31T15:30:04.968Z,21.8
2019-01-31T15:32:04.901Z,21.8
2019-01-31T15:34:05.622Z,21.8
2019-01-31T15:36:05.300Z,21.8
2019-01-31T15:38:10.034Z,21.8
2019-01-31T15:40:09.980Z,21.8
2019-01-31T15:42:04.672Z,21.8
2019-01-31T15:44:07.900Z,21.9
2019-01-31T15:46:05.808Z,21.9
2019-01-31T15:48:10.530Z,22
2019-01-31T15:50:07.663Z,22
2019-01-31T15:52:05.339Z,22
2019-01-31T15:54:07.625Z,22
2019-01-31T15:56:05.337Z,22
2019-01-31T15:58:04.977Z,22.1
2019-01-31T16:00:04.657Z,22.1
2019-01-31T16:02:08.022Z,22.1
2019-01-31T16:04:05.937Z,22.1
2019-01-31T16:06:07.186Z,22.1
2019-01-31T16:08:08.656Z,22.1
2019-01-31T16:10:05.098Z,22.1
2019-01-31T16:12:07.380Z,22.1
2019-01-31T16:14:05.813Z,22.1
2019-01-31T16:16:10.359Z,22.1
2019-01-31T16:18:05.603Z,22.1
2019-01-31T16:20:05.038Z,22.1
2019-01-31T16:22:06.540Z,22.1
2019-01-31T16:24:10.790Z,22.1
2019-01-31T16:26:05.778Z,22.1
2019-01-31T16:28:08.995Z,22.1
2019-01-31T16:30:05.741Z,22.1
2019-01-31T16:32:07.684Z,22
2019-01-31T16:34:06.829Z,22
2019-01-31T16:36:05.831Z,22
2019-01-31T16:38:08.133Z,22
2019-01-31T16:40:05.158Z,22
2019-01-31T16:42:05.095Z,22
2019-01-31T16:44:04.928Z,22
2019-01-31T16:46:10.954Z,21.9
2019-01-31T16:48:05.833Z,21.9
2019-01-31T16:50:04.980Z,21.9
2019-01-31T16:52:08.201Z,21.9
2019-01-31T16:54:08.537Z,21.8
2019-01-31T16:56:07.581Z,21.9
2019-01-31T16:58:06.745Z,21.8
2019-01-31T17:00:05.528Z,21.9
2019-01-31T17:02:12.620Z,21.8
2019-01-31T17:04:10.351Z,21.9
2019-01-31T17:06:10.474Z,21.9
2019-01-31T17:08:12.954Z,21.9
2019-01-31T17:10:06.547Z,22
2019-01-31T17:12:05.592Z,22
2019-01-31T17:14:07.939Z,22
2019-01-31T17:16:08.019Z,22
2019-01-31T17:18:04.908Z,22
2019-01-31T17:20:05.093Z,22
2019-01-31T17:22:10.948Z,22
2019-01-31T17:24:05.099Z,22
2019-01-31T17:26:05.190Z,22
2019-01-31T17:28:05.471Z,22
2019-01-31T17:30:09.330Z,22.1
2019-01-31T17:32:05.513Z,22.1
2019-01-31T17:34:06.137Z,22.1
2019-01-31T17:36:06.062Z,22
2019-01-31T17:38:07.753Z,22.1
2019-01-31T17:40:05.954Z,22.1
2019-01-31T17:42:05.909Z,22.1
2019-01-31T17:44:08.598Z,22.1
2019-01-31T17:46:05.144Z,22.1
2019-01-31T17:48:05.219Z,22.1
2019-01-31T17:50:05.922Z,22.1
2019-01-31T17:52:05.672Z,22.1
2019-01-31T17:54:08.224Z,22.1
2019-01-31T17:56:05.988Z,22.2
2019-01-31T17:58:08.143Z,22.2
2019-01-31T18:00:07.808Z,22.2
2019-01-31T18:02:04.901Z,22.2
2019-01-31T18:04:05.097Z,22.2
2019-01-31T18:06:04.954Z,22.2
2019-01-31T18:08:04.689Z,22.3
2019-01-31T18:10:04.680Z,22.3
2019-01-31T18:12:05.443Z,22.3
2019-01-31T18:14:04.712Z,22.4
2019-01-31T18:16:08.125Z,22.4
2019-01-31T18:18:05.095Z,22.4
2019-01-31T18:20:04.787Z,22.4
2019-01-31T18:22:05.522Z,22.4
2019-01-31T18:24:05.199Z,22.4
2019-01-31T18:26:04.872Z,22.4
2019-01-31T18:28:07.621Z,22.4
2019-01-31T18:30:05.275Z,22.4
2019-01-31T18:32:05.440Z,22.4
2019-01-31T18:34:05.142Z,22.5
2019-01-31T18:36:05.363Z,22.5
2019-01-31T18:38:04.974Z,22.5
2019-01-31T18:40:04.843Z,22.5
2019-01-31T18:42:07.688Z,22.5
2019-01-31T18:44:05.433Z,22.5
2019-01-31T18:46:05.112Z,22.5
2019-01-31T18:48:05.126Z,22.5
2019-01-31T18:50:15.165Z,22.5
2019-01-31T18:52:07.391Z,22.5
2019-01-31T18:54:09.053Z,22.4
2019-01-31T18:56:05.424Z,22.4
2019-01-31T18:58:05.314Z,22.4
2019-01-31T19:00:05.216Z,22.4
2019-01-31T19:02:04.924Z,22.4
2019-01-31T19:04:07.369Z,22.4
2019-01-31T19:06:05.079Z,22.4
2019-01-31T19:08:07.029Z,22.4
2019-01-31T19:10:04.760Z,22.4
2019-01-31T19:12:08.017Z,22.4
2019-01-31T19:14:04.704Z,22.4
2019-01-31T19:16:05.754Z,22.4
2019-01-31T19:18:05.676Z,22.4
2019-01-31T19:20:05.006Z,22.4
2019-01-31T19:22:04.803Z,22.4
2019-01-31T19:24:05.498Z,22.4
2019-01-31T19:26:05.485Z,22.3
2019-01-31T19:28:07.741Z,22.3
2019-01-31T19:30:05.424Z,22.4
2019-01-31T19:32:15.457Z,22.3
2019-01-31T19:34:05.118Z,22.3
2019-01-31T19:36:05.160Z,22.4
2019-01-31T19:38:05.310Z,22.4
2019-01-31T19:40:07.185Z,22.4
2019-01-31T19:42:07.374Z,22.4
2019-01-31T19:44:05.071Z,22.4
2019-01-31T19:46:15.684Z,22.4
2019-01-31T19:48:05.315Z,22.4
2019-01-31T19:50:05.157Z,22.5
2019-01-31T19:52:07.377Z,22.5
2019-01-31T19:54:06.176Z,22.5
2019-01-31T19:56:04.941Z,22.5
2019-01-31T19:58:04.587Z,22.5
2019-01-31T20:00:05.545Z,22.5
2019-01-31T20:02:05.225Z,22.5
2019-01-31T20:04:07.545Z,22.6
2019-01-31T20:06:05.091Z,22.5
2019-01-31T20:08:12.597Z,22.6
2019-01-31T20:10:05.090Z,22.6
2019-01-31T20:12:04.894Z,22.6
2019-01-31T20:14:05.637Z,22.5
2019-01-31T20:16:05.370Z,22.5
2019-01-31T20:18:05.292Z,22.5
2019-01-31T20:20:05.122Z,22.5
2019-01-31T20:22:05.336Z,22.5
2019-01-31T20:24:07.748Z,22.6
2019-01-31T20:26:05.425Z,22.6
2019-01-31T20:28:05.375Z,22.5
2019-01-31T20:30:05.070Z,22.5
2019-01-31T20:32:07.283Z,22.5
2019-01-31T20:34:07.695Z,22.5
2019-01-31T20:36:05.016Z,22.5
2019-01-31T20:38:05.201Z,22.5
2019-01-31T20:40:07.683Z,22.5
2019-01-31T20:42:04.880Z,22.5
2019-01-31T20:44:05.359Z,22.5
2019-01-31T20:46:05.371Z,22.5
2019-01-31T20:48:05.139Z,22.5
2019-01-31T20:50:09.904Z,22.4
2019-01-31T20:52:10.592Z,22.5
2019-01-31T20:54:07.834Z,22.4
2019-01-31T20:56:05.688Z,22.4
2019-01-31T20:58:07.945Z,22.6
2019-01-31T21:00:09.693Z,22.7
2019-01-31T21:02:05.409Z,22.7
2019-01-31T21:04:07.715Z,22.7
2019-01-31T21:06:04.741Z,22.7
2019-01-31T21:08:06.625Z,22.7
2019-01-31T21:10:05.190Z,22.7
2019-01-31T21:12:07.604Z,22.7
2019-01-31T21:14:06.311Z,22.7
2019-01-31T21:16:05.217Z,22.7
2019-01-31T21:18:10.536Z,22.7
2019-01-31T21:20:05.515Z,22.7
2019-01-31T21:22:05.681Z,22.7
2019-01-31T21:24:05.632Z,22.8
2019-01-31T21:26:05.286Z,22.8
2019-01-31T21:28:05.175Z,22.8
2019-01-31T21:30:04.877Z,22.8
2019-01-31T21:32:05.568Z,22.8
2019-01-31T21:34:05.503Z,22.9
2019-01-31T21:36:05.227Z,22.9
2019-01-31T21:38:07.441Z,23
2019-01-31T21:40:05.174Z,22.9
2019-01-31T21:42:07.881Z,23
2019-01-31T21:44:05.296Z,23
2019-01-31T21:46:05.463Z,23
2019-01-31T21:48:05.398Z,23
2019-01-31T21:50:04.826Z,23
2019-01-31T21:52:04.687Z,23
2019-01-31T21:54:05.332Z,23
2019-01-31T21:56:09.903Z,22.9
2019-01-31T21:58:05.828Z,22.9
2019-01-31T22:00:05.591Z,22.9
2019-01-31T22:02:05.411Z,22.8
2019-01-31T22:04:04.946Z,22.8
2019-01-31T22:06:05.393Z,22.8
2019-01-31T22:08:10.165Z,22.8
2019-01-31T22:10:04.828Z,22.8
2019-01-31T22:12:05.115Z,22.8
2019-01-31T22:14:07.310Z,22.8
2019-01-31T22:16:14.755Z,22.7
2019-01-31T22:18:04.952Z,22.7
2019-01-31T22:20:05.863Z,22.7
2019-01-31T22:22:04.741Z,22.7
2019-01-31T22:26:08.488Z,22.7
2019-01-31T22:28:07.789Z,22.7
2019-01-31T22:30:04.921Z,22.7
2019-01-31T22:32:04.733Z,22.6
2019-01-31T22:34:07.218Z,22.6
2019-01-31T22:36:05.154Z,22.6
2019-01-31T22:38:15.221Z,22.6
2019-01-31T22:40:06.206Z,22.6
2019-01-31T22:42:04.917Z,22.6
2019-01-31T22:44:05.619Z,22.6
2019-01-31T22:46:05.297Z,22.6
2019-01-31T22:48:05.888Z,22.5
2019-01-31T22:50:05.635Z,22.5
2019-01-31T22:52:05.309Z,22.5
2019-01-31T22:54:07.626Z,22.5
2019-01-31T22:56:10.542Z,22.5
2019-01-31T22:58:08.048Z,22.5
2019-01-31T23:00:04.961Z,22.5
2019-01-31T23:02:04.625Z,22.5
2019-01-31T23:04:05.391Z,22.5
2019-01-31T23:06:07.662Z,22.5
2019-01-31T23:08:05.049Z,22.4
2019-01-31T23:10:09.817Z,22.4
2019-01-31T23:12:09.948Z,22.4
2019-01-31T23:14:04.721Z,22.4
2019-01-31T23:16:05.477Z,22.4
2019-01-31T23:18:10.401Z,22.4
2019-01-31T23:20:05.565Z,22.4
2019-01-31T23:22:07.805Z,22.4
2019-01-31T23:24:05.655Z,22.4
2019-01-31T23:26:05.288Z,22.4
2019-01-31T23:28:07.584Z,22.4
2019-01-31T23:30:04.964Z,22.4
2019-01-31T23:32:04.711Z,22.4
2019-01-31T23:34:08.134Z,22.4
2019-01-31T23:36:05.421Z,22.4
2019-01-31T23:38:05.081Z,22.4
2019-01-31T23:40:04.745Z,22.4
2019-01-31T23:42:05.631Z,22.4
2019-01-31T23:44:05.311Z,22.4
2019-01-31T23:46:04.993Z,22.4
2019-01-31T23:48:07.305Z,22.3
2019-01-31T23:50:05.040Z,22.4
2019-01-31T23:52:07.274Z,22.3
2019-01-31T23:54:04.970Z,22.3
2019-01-31T23:56:04.654Z,22.3
2019-01-31T23:58:05.360Z,22.3
